createdAt,value
2018-07-17T00:00:15.982Z,73.67
2018-07-17T00:01:26.054Z,73.38
2018-07-17T00:02:37.460Z,73.58
2018-07-17T00:03:49.157Z,74.35
2018-07-17T00:04:59.245Z,73.38
2018-07-17T00:06:09.072Z,74.35
2018-07-17T00:07:19.148Z,73.38
2018-07-17T00:08:29.270Z,73.86
2018-07-17T00:09:39.159Z,73.77
2018-07-17T00:10:49.621Z,73.77
2018-07-17T00:11:59.698Z,74.06
2018-07-17T00:13:09.760Z,73.38
2018-07-17T00:14:19.859Z,73.28
2018-07-17T00:15:29.937Z,73.48
2018-07-17T00:16:40.000Z,73.42
2018-07-17T00:17:50.084Z,73.58
2018-07-17T00:19:00.176Z,74.25
2018-07-17T00:20:10.264Z,73.67
2018-07-17T00:21:20.344Z,73.38
2018-07-17T00:22:30.425Z,73.38
2018-07-17T00:23:40.243Z,73.67
2018-07-17T00:24:50.322Z,73.38
2018-07-17T00:26:01.136Z,73.38
2018-07-17T00:27:11.209Z,73.86
2018-07-17T00:28:21.276Z,73.58
2018-07-17T00:29:31.406Z,73.86
2018-07-17T00:30:41.485Z,73.86
2018-07-17T00:31:51.561Z,74.06
2018-07-17T00:33:01.643Z,74.16
2018-07-17T00:34:11.713Z,74.16
2018-07-17T00:35:21.528Z,74.06
2018-07-17T00:36:31.350Z,74.12
2018-07-17T00:37:41.429Z,74.16
2018-07-17T00:38:51.510Z,74.16
2018-07-17T00:40:01.585Z,74.12
2018-07-17T00:41:11.662Z,74.12
2018-07-17T00:42:21.726Z,74.12
2018-07-17T00:43:31.637Z,74.31
2018-07-17T00:44:41.708Z,74.02
2018-07-17T00:45:51.765Z,74.21
2018-07-17T00:47:01.585Z,74.31
2018-07-17T00:48:11.648Z,74.21
2018-07-17T00:49:21.720Z,74.02
2018-07-17T00:50:31.787Z,74.02
2018-07-17T00:51:41.594Z,74.02
2018-07-17T00:52:51.684Z,74.21
2018-07-17T00:54:01.754Z,74.02
2018-07-17T00:55:11.878Z,74.21
2018-07-17T00:56:21.931Z,73.93
2018-07-17T00:57:31.993Z,74.21
2018-07-17T00:58:42.064Z,74.31
2018-07-17T00:59:52.137Z,74.12
2018-07-17T01:01:02.274Z,74.02
2018-07-17T01:02:12.904Z,73.93
2018-07-17T01:03:22.982Z,73.63
2018-07-17T01:04:33.047Z,73.83
2018-07-17T01:05:42.613Z,73.83
2018-07-17T01:06:52.731Z,73.63
2018-07-17T01:08:02.849Z,73.83
2018-07-17T01:09:12.665Z,73.83
2018-07-17T01:10:22.739Z,73.35
2018-07-17T01:11:32.559Z,73.35
2018-07-17T01:12:42.640Z,73.63
2018-07-17T01:13:52.696Z,73.35
2018-07-17T01:15:02.754Z,73.63
2018-07-17T01:16:12.571Z,73.63
2018-07-17T01:17:22.636Z,73.6
2018-07-17T01:18:32.709Z,73.93
2018-07-17T01:19:42.779Z,73.83
2018-07-17T01:20:52.844Z,73.99
2018-07-17T01:22:02.926Z,74.02
2018-07-17T01:23:13.014Z,73.99
2018-07-17T01:24:22.609Z,74.08
2018-07-17T01:25:32.679Z,73.99
2018-07-17T01:26:42.744Z,74.18
2018-07-17T01:27:52.557Z,74.18
2018-07-17T01:29:02.643Z,74.08
2018-07-17T01:30:12.755Z,74.18
2018-07-17T01:31:22.844Z,74.27
2018-07-17T01:32:32.659Z,74.18
2018-07-17T01:33:42.716Z,73.89
2018-07-17T01:34:52.526Z,73.99
2018-07-17T01:36:02.591Z,73.6
2018-07-17T01:37:12.688Z,73.99
2018-07-17T01:38:22.835Z,73.6
2018-07-17T01:39:33.228Z,73.99
2018-07-17T01:40:43.025Z,73.6
2018-07-17T01:41:52.913Z,73.89
2018-07-17T01:43:03.040Z,73.79
2018-07-17T01:44:13.020Z,73.79
2018-07-17T01:45:22.838Z,73.89
2018-07-17T01:46:32.930Z,73.79
2018-07-17T01:47:42.749Z,73.69
2018-07-17T01:48:52.557Z,73.79
2018-07-17T01:50:02.611Z,73.6
2018-07-17T01:51:12.426Z,74.08
2018-07-17T01:52:22.523Z,74.08
2018-07-17T01:53:32.605Z,74.08
2018-07-17T01:54:42.663Z,74.08
2018-07-17T01:55:52.741Z,74.08
2018-07-17T01:57:02.545Z,74.18
2018-07-17T01:58:12.614Z,74.08
2018-07-17T01:59:22.794Z,73.99
2018-07-17T02:00:32.860Z,74.08
2018-07-17T02:01:42.669Z,74.08
2018-07-17T02:02:52.732Z,74.27
2018-07-17T02:04:02.799Z,74.18
2018-07-17T02:05:12.860Z,73.79
2018-07-17T02:06:22.939Z,74.08
2018-07-17T02:07:33.072Z,74.08
2018-07-17T02:08:43.156Z,74.08
2018-07-17T02:09:53.225Z,74.08
2018-07-17T02:11:03.304Z,74.18
2018-07-17T02:12:13.373Z,74.05
2018-07-17T02:13:23.178Z,74.14
2018-07-17T02:14:33.240Z,74.14
2018-07-17T02:15:43.317Z,74.24
2018-07-17T02:16:53.377Z,74.05
2018-07-17T02:18:03.456Z,74.05
2018-07-17T02:19:13.540Z,74.05
2018-07-17T02:20:23.642Z,74.05
2018-07-17T02:21:33.460Z,73.95
2018-07-17T02:22:43.542Z,74.05
2018-07-17T02:23:53.364Z,73.75
2018-07-17T02:25:03.168Z,73.95
2018-07-17T02:26:13.244Z,73.95
2018-07-17T02:27:23.076Z,73.95
2018-07-17T02:28:32.877Z,73.95
2018-07-17T02:29:42.933Z,73.85
2018-07-17T02:30:52.752Z,74.14
2018-07-17T02:32:02.851Z,73.57
2018-07-17T02:33:12.946Z,74.05
2018-07-17T02:34:23.047Z,74.05
2018-07-17T02:35:32.842Z,74.14
2018-07-17T02:36:42.924Z,74.14
2018-07-17T02:37:52.983Z,73.85
2018-07-17T02:39:03.053Z,73.85
2018-07-17T02:40:13.146Z,73.95
2018-07-17T02:41:23.234Z,73.75
2018-07-17T02:42:33.383Z,73.57
2018-07-17T02:43:43.193Z,73.57
2018-07-17T02:44:53.007Z,73.57
2018-07-17T02:46:03.078Z,73.75
2018-07-17T02:47:12.909Z,73.75
2018-07-17T02:48:22.993Z,73.85
2018-07-17T02:49:32.816Z,74.05
2018-07-17T02:50:42.874Z,73.57
2018-07-17T02:51:52.966Z,73.95
2018-07-17T02:53:03.039Z,74.05
2018-07-17T02:54:13.138Z,73.95
2018-07-17T02:55:23.208Z,74.24
2018-07-17T02:56:33.349Z,74.24
2018-07-17T02:57:43.413Z,74.14
2018-07-17T02:58:53.487Z,74.14
2018-07-17T03:00:03.323Z,74.05
2018-07-17T03:01:13.390Z,74.24
2018-07-17T03:02:23.454Z,74.24
2018-07-17T03:35:04.840Z,69.09
2018-07-17T03:36:14.622Z,69.09
2018-07-17T03:37:24.566Z,69.28
2018-07-17T03:38:34.368Z,70.34
2018-07-17T03:39:44.422Z,70.78
2018-07-17T03:40:54.538Z,71.49
2018-07-17T03:42:04.586Z,71.78
2018-07-17T03:43:14.666Z,71.88
2018-07-17T03:44:24.460Z,72.45
2018-07-17T03:45:34.266Z,72.39
2018-07-17T03:46:44.328Z,72.78
2018-07-17T03:47:54.450Z,72.81
2018-07-17T03:49:04.530Z,72.63
2018-07-17T03:50:14.355Z,72.43
2018-07-17T03:51:24.446Z,72.95
2018-07-17T03:52:34.507Z,72.85
2018-07-17T03:53:44.578Z,72.85
2018-07-17T03:54:54.390Z,72.75
2018-07-17T03:56:04.475Z,72.79
2018-07-17T03:57:14.553Z,72.5
2018-07-17T03:58:24.620Z,72.69
2018-07-17T03:59:34.675Z,73.18
2018-07-17T04:00:44.730Z,72.99
2018-07-17T04:01:54.806Z,73.21
2018-07-17T04:03:04.872Z,73.6
2018-07-17T04:04:15.178Z,73.21
2018-07-17T04:05:25.721Z,73.41
2018-07-17T04:06:35.795Z,73.69
2018-07-17T04:07:45.863Z,73.5
2018-07-17T04:08:55.434Z,73.21
2018-07-17T04:10:05.247Z,73.31
2018-07-17T04:11:15.317Z,73.41
2018-07-17T04:12:25.394Z,73.31
2018-07-17T04:13:35.441Z,73.31
2018-07-17T04:14:45.010Z,73.31
2018-07-17T04:15:55.091Z,73.31
2018-07-17T04:17:05.180Z,73.44
2018-07-17T04:18:15.255Z,73.44
2018-07-17T04:19:25.369Z,73.35
2018-07-17T04:20:35.482Z,73.15
2018-07-17T04:21:45.338Z,73.35
2018-07-17T04:22:54.902Z,73.35
2018-07-17T04:24:04.959Z,73.35
2018-07-17T04:25:14.764Z,73.15
2018-07-17T04:26:24.827Z,73.25
2018-07-17T04:27:34.123Z,73.54
2018-07-17T04:28:44.177Z,73.54
2018-07-17T04:29:54.132Z,73.44
2018-07-17T04:31:04.368Z,73.15
2018-07-17T04:32:14.443Z,73.25
2018-07-17T04:33:24.518Z,72.96
2018-07-17T04:34:34.595Z,73.25
2018-07-17T04:35:44.410Z,72.9
2018-07-17T04:36:54.478Z,72.8
2018-07-17T04:38:04.535Z,72.9
2018-07-17T04:39:14.615Z,72.61
2018-07-17T04:40:24.428Z,72.9
2018-07-17T04:41:34.500Z,72.9
2018-07-17T04:42:44.565Z,72.8
2018-07-17T04:43:54.393Z,73.13
2018-07-17T04:45:04.569Z,71.78
2018-07-17T04:46:14.633Z,69.27
2018-07-17T04:47:24.818Z,69.37
2018-07-17T04:48:34.626Z,69.53
2018-07-17T04:49:44.437Z,68.89
2018-07-17T04:50:54.511Z,69.21
2018-07-17T04:52:04.325Z,69.7
2018-07-17T04:53:14.391Z,70.15
2018-07-17T04:54:24.230Z,68.82
2018-07-17T04:55:34.045Z,68.57
2018-07-17T04:56:44.339Z,68.02
2018-07-17T04:57:54.409Z,68.18
2018-07-17T04:59:04.220Z,67.99
2018-07-17T05:00:14.086Z,67.67
2018-07-17T05:01:24.240Z,68.15
2018-07-17T05:02:34.570Z,68.99
2018-07-17T05:03:44.657Z,69.64
2018-07-17T05:04:54.729Z,70.39
2018-07-17T05:06:04.808Z,70.35
2018-07-17T05:07:14.882Z,70.64
2018-07-17T05:08:24.944Z,71.03
2018-07-17T05:09:35.022Z,71.03
2018-07-17T05:10:45.097Z,71.48
2018-07-17T05:11:54.704Z,71.28
2018-07-17T05:13:04.998Z,71.25
2018-07-17T05:14:14.767Z,71.25
2018-07-17T05:15:24.313Z,71.28
2018-07-17T05:16:34.279Z,71.15
2018-07-17T05:17:44.381Z,71.15
2018-07-17T05:18:53.660Z,71.44
2018-07-17T05:20:03.471Z,71.44
2018-07-17T05:21:13.691Z,71.25
2018-07-17T05:22:23.852Z,71.09
2018-07-17T05:23:33.953Z,71.34
2018-07-17T05:24:44.037Z,71.34
2018-07-17T05:25:53.888Z,71.67
2018-07-17T05:27:03.959Z,71.54
2018-07-17T05:28:14.022Z,71.15
2018-07-17T05:29:24.099Z,71.15
2018-07-17T05:30:34.169Z,70.96
2018-07-17T05:31:44.230Z,71.06
2018-07-17T05:32:54.305Z,71.25
2018-07-17T05:34:04.408Z,71.64
2018-07-17T05:35:14.782Z,71.34
2018-07-17T05:36:24.874Z,71.34
2018-07-17T05:37:34.944Z,70.92
2018-07-17T05:38:45.012Z,71.31
2018-07-17T05:39:54.815Z,71.6
2018-07-17T05:41:04.883Z,71.02
2018-07-17T05:42:14.962Z,71.22
2018-07-17T05:43:25.102Z,71.6
2018-07-17T05:44:35.181Z,71.34
2018-07-17T05:45:45.271Z,71.06
2018-07-17T05:46:55.364Z,70.86
2018-07-17T05:48:05.447Z,70.76
2018-07-17T05:49:15.307Z,70.41
2018-07-17T05:50:25.116Z,70.45
2018-07-17T05:51:34.930Z,69.96
2018-07-17T05:52:45.006Z,69.57
2018-07-17T05:53:55.063Z,69.8
2018-07-17T05:55:04.872Z,69.45
2018-07-17T05:56:14.996Z,68.02
2018-07-17T05:57:25.079Z,68.15
2018-07-17T05:58:35.157Z,67.63
2018-07-17T05:59:45.298Z,65.4
2018-07-17T06:00:55.103Z,64.9
2018-07-17T06:02:05.181Z,65.72
2018-07-17T06:03:15.057Z,66.73
2018-07-17T06:04:25.410Z,67.86
2018-07-17T06:05:35.256Z,68.32
2018-07-17T06:06:45.323Z,66.99
2018-07-17T06:07:55.245Z,67.71
2018-07-17T06:09:05.326Z,67.32
2018-07-17T06:10:15.247Z,67.44
2018-07-17T06:11:25.596Z,68.68
2018-07-17T06:12:35.671Z,68.06
2018-07-17T06:13:45.549Z,69.04
2018-07-17T06:14:55.624Z,69.59
2018-07-17T06:16:05.691Z,69.29
2018-07-17T06:17:15.760Z,69.46
2018-07-17T06:18:25.568Z,69
2018-07-17T06:19:35.643Z,69.1
2018-07-17T06:20:45.728Z,67.86
2018-07-17T06:21:55.800Z,67.97
2018-07-17T06:23:06.123Z,67.97
2018-07-17T06:24:16.205Z,68.55
2018-07-17T06:25:26.312Z,68.42
2018-07-17T06:26:36.390Z,69.4
2018-07-17T06:27:46.461Z,69.17
2018-07-17T06:28:56.536Z,69.95
2018-07-17T06:30:06.624Z,69.92
2018-07-17T06:31:16.707Z,70.56
2018-07-17T06:32:26.793Z,70.76
2018-07-17T06:33:36.874Z,70.33
2018-07-17T06:34:47.009Z,70.66
2018-07-17T06:35:57.079Z,70.27
2018-07-17T06:37:07.154Z,70.82
2018-07-17T06:38:16.989Z,71.17
2018-07-17T06:39:26.789Z,71.08
2018-07-17T06:40:36.328Z,71.37
2018-07-17T06:41:46.415Z,70.78
2018-07-17T06:42:56.494Z,70.2
2018-07-17T06:44:06.599Z,70.3
2018-07-17T06:45:16.681Z,70.72
2018-07-17T06:46:26.601Z,70.43
2018-07-17T06:47:36.676Z,69.84
2018-07-17T06:48:46.491Z,69.68
2018-07-17T06:49:56.560Z,69.13
2018-07-17T06:51:06.371Z,68.59
2018-07-17T06:52:16.471Z,68.49
2018-07-17T06:53:26.553Z,68.49
2018-07-17T06:54:36.381Z,69.07
2018-07-17T06:55:46.452Z,69.17
2018-07-17T06:56:56.263Z,69.56
2018-07-17T06:58:06.332Z,69.43
2018-07-17T06:59:16.149Z,69.23
2018-07-17T07:00:26.229Z,69.33
2018-07-17T07:01:36.310Z,69.46
2018-07-17T07:02:46.400Z,69.23
2018-07-17T07:03:56.462Z,68.87
2018-07-17T07:05:06.535Z,68.59
2018-07-17T07:06:16.208Z,68.52
2018-07-17T07:07:26.021Z,68.71
2018-07-17T07:08:35.932Z,68.55
2018-07-17T07:09:45.775Z,68.65
2018-07-17T07:10:55.852Z,68.55
2018-07-17T07:12:05.988Z,68.59
2018-07-17T07:13:16.068Z,68.95
2018-07-17T07:14:26.196Z,68.26
2018-07-17T07:15:36.260Z,68.36
2018-07-17T07:16:46.319Z,68.36
2018-07-17T07:17:56.466Z,68.36
2018-07-17T07:19:06.550Z,68.26
2018-07-17T07:20:16.621Z,69.14
2018-07-17T07:21:26.712Z,68.55
2018-07-17T07:22:36.795Z,69.24
2018-07-17T07:23:47.078Z,69.04
2018-07-17T07:24:57.150Z,68.36
2018-07-17T07:26:07.221Z,68.85
2018-07-17T07:27:17.304Z,69.34
2018-07-17T07:28:27.111Z,69.2
2018-07-17T07:29:37.199Z,69.01
2018-07-17T07:30:47.274Z,69.1
2018-07-17T07:31:57.575Z,69.2
2018-07-17T07:33:07.394Z,69.56
2018-07-17T07:34:17.225Z,69.75
2018-07-17T07:35:27.313Z,69.36
2018-07-17T07:36:37.405Z,69.36
2018-07-17T07:37:47.496Z,69.26
2018-07-17T07:38:57.611Z,69.82
2018-07-17T07:40:07.712Z,69.92
2018-07-17T07:41:17.795Z,69.82
2018-07-17T07:42:27.893Z,69.82
2018-07-17T07:43:37.972Z,70.07
2018-07-17T07:44:48.051Z,70.07
2018-07-17T07:45:58.133Z,70.17
2018-07-17T07:47:07.953Z,69.98
2018-07-17T07:48:18.045Z,70.76
2018-07-17T07:49:28.180Z,70.72
2018-07-17T07:50:38.031Z,70.62
2018-07-17T07:51:48.123Z,70.04
2018-07-17T07:52:57.935Z,69.94
2018-07-17T07:54:08.023Z,69.65
2018-07-17T07:55:17.844Z,69.65
2018-07-17T07:56:27.935Z,69.98
2018-07-17T07:57:38.013Z,69.39
2018-07-17T07:58:48.102Z,69.39
2018-07-17T07:59:58.191Z,69.2
2018-07-17T08:01:08.263Z,69.13
2018-07-17T08:02:18.336Z,69.04
2018-07-17T08:03:28.429Z,69.04
2018-07-17T08:04:38.349Z,69.13
2018-07-17T08:05:48.503Z,68.68
2018-07-17T08:06:58.596Z,68.39
2018-07-17T08:08:08.680Z,68.77
2018-07-17T08:09:18.765Z,68.19
2018-07-17T08:10:28.831Z,68.59
2018-07-17T08:11:39.028Z,68.42
2018-07-17T08:12:48.651Z,68.62
2018-07-17T08:13:58.770Z,68.95
2018-07-17T08:15:08.850Z,68.46
2018-07-17T08:16:18.939Z,68.59
2018-07-17T08:17:28.760Z,68.59
2018-07-17T08:18:38.859Z,68.59
2018-07-17T08:19:48.693Z,68.59
2018-07-17T08:20:58.775Z,68.59
2018-07-17T08:22:08.855Z,68.59
2018-07-17T08:23:18.674Z,68.59
2018-07-17T08:24:29.020Z,68.78
2018-07-17T08:25:39.136Z,68.42
2018-07-17T08:26:48.959Z,68.62
2018-07-17T08:27:59.031Z,68.62
2018-07-17T08:29:08.854Z,68.71
2018-07-17T08:30:18.934Z,68.59
2018-07-17T08:31:29.007Z,68.49
2018-07-17T08:32:38.829Z,69.27
2018-07-17T08:33:48.901Z,68.59
2018-07-17T08:34:59.051Z,68.78
2018-07-17T08:36:08.868Z,68.42
2018-07-17T08:37:19.001Z,68.71
2018-07-17T08:38:28.831Z,68.91
2018-07-17T08:39:38.914Z,68.71
2018-07-17T08:40:48.987Z,68.55
2018-07-17T08:41:59.095Z,67.71
2018-07-17T08:43:09.210Z,68.13
2018-07-17T08:44:19.477Z,67.74
2018-07-17T08:45:29.312Z,67.74
2018-07-17T08:46:39.394Z,67.97
2018-07-17T08:47:49.473Z,68.16
2018-07-17T08:48:59.292Z,68.07
2018-07-17T08:50:09.234Z,67.97
2018-07-17T08:51:19.356Z,67.68
2018-07-17T08:52:29.435Z,67.97
2018-07-17T08:53:38.997Z,68.26
2018-07-17T08:54:48.824Z,67.87
2018-07-17T08:55:58.637Z,68.55
2018-07-17T08:57:08.723Z,68.46
2018-07-17T08:58:18.811Z,68.82
2018-07-17T08:59:28.903Z,68.88
2018-07-17T09:00:39.011Z,69.08
2018-07-17T09:01:49.105Z,69.73
2018-07-17T09:02:59.205Z,69.79
2018-07-17T09:04:09.278Z,69.76
2018-07-17T09:05:19.359Z,69.95
2018-07-17T09:06:29.192Z,70.34
2018-07-17T09:07:39.283Z,70.61
2018-07-17T09:08:49.107Z,70.61
2018-07-17T09:09:59.279Z,70.61
2018-07-17T09:11:09.361Z,70.47
2018-07-17T09:12:19.433Z,70.67
2018-07-17T09:13:29.503Z,70.37
2018-07-17T09:14:39.581Z,70.34
2018-07-17T09:15:49.667Z,69.59
2018-07-17T09:16:59.762Z,69.75
2018-07-17T09:18:09.848Z,69.85
2018-07-17T09:19:19.935Z,69.26
2018-07-17T09:20:30.035Z,69.65
2018-07-17T09:21:40.048Z,69.3
2018-07-17T09:22:50.218Z,68.91
2018-07-17T09:24:00.033Z,68.85
2018-07-17T09:25:09.846Z,68.36
2018-07-17T09:26:19.668Z,69.24
2018-07-17T09:27:29.500Z,68.46
2018-07-17T09:28:39.591Z,68.59
2018-07-17T09:29:49.704Z,68.49
2018-07-17T09:30:59.800Z,67.9
2018-07-17T09:32:09.884Z,68
2018-07-17T09:33:19.722Z,67.93
2018-07-17T09:34:29.855Z,68.13
2018-07-17T09:35:39.937Z,67.83
2018-07-17T09:36:50.018Z,67.93
2018-07-17T09:37:59.647Z,67.64
2018-07-17T09:39:09.779Z,68.03
2018-07-17T09:40:20.092Z,68.03
2018-07-17T09:41:29.905Z,68.03
2018-07-17T09:42:39.749Z,68.42
2018-07-17T09:43:49.848Z,68.62
2018-07-17T09:44:59.662Z,68.82
2018-07-17T09:46:09.757Z,68.49
2018-07-17T09:47:19.589Z,68.68
2018-07-17T09:48:29.678Z,68.95
2018-07-17T09:49:39.741Z,69.69
2018-07-17T09:50:49.868Z,69.4
2018-07-17T09:51:59.942Z,69.65
2018-07-17T09:53:10.031Z,70.11
2018-07-17T09:54:19.988Z,70.5
2018-07-17T09:55:30.538Z,70.47
2018-07-17T09:56:40.660Z,71.01
2018-07-17T09:57:51.002Z,71.11
2018-07-17T09:59:01.078Z,70.27
2018-07-17T10:00:11.151Z,70.27
2018-07-17T10:01:20.961Z,69.98
2018-07-17T10:02:30.859Z,69.72
2018-07-17T10:03:40.680Z,69.62
2018-07-17T10:04:50.787Z,69.92
2018-07-17T10:06:00.864Z,70.11
2018-07-17T10:07:10.970Z,69.65
2018-07-17T10:08:21.112Z,69.46
2018-07-17T10:09:30.996Z,69.46
2018-07-17T10:10:41.578Z,69.36
2018-07-17T10:11:51.828Z,69.95
2018-07-17T10:13:02.326Z,69.79
2018-07-17T10:14:12.430Z,69.59
2018-07-17T10:15:22.520Z,69.2
2018-07-17T10:16:32.621Z,69.04
2018-07-17T10:17:42.433Z,69.04
2018-07-17T10:18:52.254Z,69.17
2018-07-17T10:20:02.576Z,69.07
2018-07-17T10:21:13.130Z,68.71
2018-07-17T10:22:22.948Z,68.42
2018-07-17T10:23:32.518Z,68.46
2018-07-17T10:24:42.367Z,68.59
2018-07-17T10:25:52.505Z,68.59
2018-07-17T10:27:02.615Z,68.72
2018-07-17T10:28:12.438Z,68.55
2018-07-17T10:29:22.532Z,68.46
2018-07-17T10:30:32.617Z,68.16
2018-07-17T10:31:42.721Z,67.8
2018-07-17T10:32:52.823Z,67.71
2018-07-17T10:34:02.638Z,67.94
2018-07-17T10:35:12.207Z,67.84
2018-07-17T10:36:22.295Z,68.23
2018-07-17T10:37:32.427Z,68.43
2018-07-17T10:38:42.707Z,68.43
2018-07-17T10:39:52.965Z,67.94
2018-07-17T10:41:03.052Z,68.37
2018-07-17T10:42:13.171Z,68.85
2018-07-17T10:43:23.250Z,69.02
2018-07-17T10:44:33.329Z,68.79
2018-07-17T10:45:43.408Z,69.24
2018-07-17T10:46:53.222Z,69.24
2018-07-17T10:48:03.290Z,69.21
2018-07-17T10:49:13.180Z,69.44
2018-07-17T10:50:23.331Z,68.95
2018-07-17T10:51:33.429Z,68.88
2018-07-17T10:52:43.521Z,68.91
2018-07-17T10:53:53.646Z,69.12
2018-07-17T10:55:03.849Z,68.62
2018-07-17T10:56:13.926Z,68.62
2018-07-17T10:57:24.015Z,68.91
2018-07-17T10:58:34.078Z,68.52
2018-07-17T10:59:44.177Z,68.33
2018-07-17T11:00:54.296Z,68.91
2018-07-17T11:02:04.424Z,69.41
2018-07-17T11:03:14.519Z,69.47
2018-07-17T11:04:24.592Z,69.67
2018-07-17T11:05:34.668Z,71.11
2018-07-17T11:06:44.232Z,70.45
2018-07-17T11:07:54.320Z,71.13
2018-07-17T11:09:04.127Z,71.2
2018-07-17T11:10:14.223Z,71.1
2018-07-17T11:11:24.298Z,70.21
2018-07-17T11:12:33.870Z,70.45
2018-07-17T11:13:43.979Z,69.86
2018-07-17T11:14:54.090Z,70.29
2018-07-17T11:16:03.918Z,69.73
2018-07-17T11:17:13.986Z,69.15
2018-07-17T11:18:23.587Z,69.37
2018-07-17T11:19:33.402Z,68.43
2018-07-17T11:20:43.498Z,68.72
2018-07-17T11:21:53.612Z,68.56
2018-07-17T11:23:03.705Z,68.88
2018-07-17T11:24:13.262Z,68.4
2018-07-17T11:25:23.088Z,68.13
2018-07-17T11:26:32.921Z,68.33
2018-07-17T11:27:43.001Z,68.27
2018-07-17T11:28:53.065Z,68.3
2018-07-17T11:30:02.874Z,67.91
2018-07-17T11:31:12.955Z,67.71
2018-07-17T11:32:22.786Z,67.74
2018-07-17T11:33:32.878Z,67.65
2018-07-17T11:34:42.719Z,67.94
2018-07-17T11:35:52.853Z,68.3
2018-07-17T11:37:02.683Z,68.66
2018-07-17T11:38:12.755Z,68.89
2018-07-17T11:39:22.575Z,68.85
2018-07-17T11:40:32.667Z,69.05
2018-07-17T11:41:42.506Z,69.15
2018-07-17T11:42:52.601Z,68.85
2018-07-17T11:44:02.422Z,69.21
2018-07-17T11:45:12.495Z,68.43
2018-07-17T11:46:22.346Z,69.12
2018-07-17T11:47:32.166Z,69.38
2018-07-17T11:48:42.320Z,69.48
2018-07-17T11:49:52.421Z,69.48
2018-07-17T11:51:02.515Z,69.28
2018-07-17T11:52:12.643Z,69.28
2018-07-17T11:53:22.538Z,69.48
2018-07-17T11:54:32.836Z,69.67
2018-07-17T11:55:42.944Z,69.93
2018-07-17T11:56:52.515Z,69.84
2018-07-17T11:58:02.671Z,69.84
2018-07-17T11:59:13.049Z,70.03
2018-07-17T12:00:23.742Z,69.73
2018-07-17T12:01:33.815Z,69.93
2018-07-17T12:02:43.630Z,70.03
2018-07-17T12:03:53.505Z,69.15
2018-07-17T12:05:03.613Z,69.44
2018-07-17T12:06:13.696Z,69.09
2018-07-17T12:07:23.525Z,68.59
2018-07-17T12:08:33.666Z,68.59
2018-07-17T12:09:43.798Z,68.82
2018-07-17T12:10:53.629Z,68.43
2018-07-17T12:12:03.716Z,68.37
2018-07-17T12:13:13.800Z,68.01
2018-07-17T12:14:23.895Z,68.01
2018-07-17T12:15:34.023Z,68.43
2018-07-17T12:16:44.089Z,68.43
2018-07-17T12:17:54.168Z,69.18
2018-07-17T12:19:04.251Z,70.2
2018-07-17T12:20:14.579Z,70.46
2018-07-17T12:21:25.425Z,70.59
2018-07-17T12:22:35.512Z,71.53
2018-07-17T12:23:45.575Z,72.18
2018-07-17T12:24:55.657Z,71.91
2018-07-17T12:26:05.836Z,72.5
2018-07-17T12:27:15.969Z,72.47
2018-07-17T12:28:26.056Z,72.82
2018-07-17T12:29:36.162Z,72.98
2018-07-17T12:30:46.273Z,73.05
2018-07-17T12:31:56.417Z,73.6
2018-07-17T12:33:06.511Z,73.79
2018-07-17T12:34:16.590Z,73.46
2018-07-17T12:35:26.408Z,72.49
2018-07-17T12:36:36.273Z,72.49
2018-07-17T12:37:46.347Z,72.42
2018-07-17T12:38:56.434Z,71.74
2018-07-17T12:40:06.533Z,71.74
2018-07-17T12:41:16.615Z,72.03
2018-07-17T12:42:26.686Z,71.74
2018-07-17T12:43:36.768Z,71.9
2018-07-17T12:44:46.856Z,72.49
2018-07-17T12:45:56.736Z,72.35
2018-07-17T12:47:06.817Z,72.31
2018-07-17T12:48:16.905Z,72.67
2018-07-17T12:49:26.982Z,73.08
2018-07-17T12:50:36.809Z,73.44
2018-07-17T12:51:46.881Z,73.21
2018-07-17T12:52:56.953Z,72.39
2018-07-17T12:54:07.031Z,72.2
2018-07-17T12:55:17.123Z,72.17
2018-07-17T12:56:27.452Z,71.2
2018-07-17T12:57:37.615Z,71.2
2018-07-17T12:58:47.707Z,70.06
2018-07-17T12:59:57.519Z,69.9
2018-07-17T13:01:07.601Z,69.16
2018-07-17T13:02:17.693Z,68.41
2018-07-17T13:03:27.517Z,67.86
2018-07-17T13:04:37.314Z,67.83
2018-07-17T13:05:47.142Z,67.83
2018-07-17T13:06:57.280Z,67.28
2018-07-17T13:08:06.871Z,67.61
2018-07-17T13:09:17.054Z,67.22
2018-07-17T13:10:27.439Z,67.22
2018-07-17T13:11:37.603Z,67.05
2018-07-17T13:12:47.688Z,66.99
2018-07-17T13:13:57.259Z,66.83
2018-07-17T13:15:07.389Z,66.96
2018-07-17T13:16:17.466Z,66.86
2018-07-17T13:17:27.749Z,66.76
2018-07-17T13:18:38.290Z,66.56
2018-07-17T13:19:48.388Z,67.09
2018-07-17T13:20:58.477Z,67.19
2018-07-17T13:22:08.311Z,67.54
2018-07-17T13:23:17.854Z,67.97
2018-07-17T13:24:27.678Z,68.23
2018-07-17T13:25:37.784Z,68.62
2018-07-17T13:26:47.917Z,68.78
2018-07-17T13:27:58.002Z,69.24
2018-07-17T13:29:08.088Z,69.59
2018-07-17T13:30:18.160Z,70.73
2018-07-17T13:31:28.249Z,70.7
2018-07-17T13:32:38.103Z,71.05
2018-07-17T13:33:48.184Z,71.95
2018-07-17T13:34:58.297Z,72.41
2018-07-17T13:36:08.449Z,72.37
2018-07-17T13:37:18.554Z,72.72
2018-07-17T13:38:28.624Z,73.18
2018-07-17T13:39:38.439Z,72.88
2018-07-17T13:40:48.543Z,73.33
2018-07-17T13:41:58.367Z,72.97
2018-07-17T13:43:08.451Z,73.65
2018-07-17T13:44:18.261Z,73.48
2018-07-17T13:45:28.366Z,72.89
2018-07-17T13:46:38.177Z,72.86
2018-07-17T13:47:48.282Z,73.25
2018-07-17T13:48:58.118Z,73.25
2018-07-17T13:50:08.049Z,73.11
2018-07-17T13:51:18.290Z,72.05
2018-07-17T13:52:28.376Z,72.18
2018-07-17T13:53:38.468Z,71.02
2018-07-17T13:54:48.566Z,70.03
2018-07-17T13:55:58.708Z,69.48
2018-07-17T13:57:08.833Z,69.09
2018-07-17T13:58:18.640Z,68.93
2018-07-17T13:59:28.712Z,69.18
2018-07-17T14:00:38.536Z,69.96
2018-07-17T14:01:48.440Z,70.9
2018-07-17T14:02:58.529Z,71.64
2018-07-17T14:04:08.372Z,71.99
2018-07-17T14:05:18.470Z,71.99
2018-07-17T14:06:28.568Z,71.95
2018-07-17T14:07:38.708Z,72.24
2018-07-17T14:08:48.830Z,72.02
2018-07-17T14:09:58.674Z,72.3
2018-07-17T14:11:08.500Z,72.36
2018-07-17T14:12:18.449Z,72.66
2018-07-17T14:13:28.589Z,73.14
2018-07-17T14:14:38.674Z,72.95
2018-07-17T14:15:48.776Z,73.14
2018-07-17T14:16:58.614Z,72.66
2018-07-17T14:18:08.426Z,72.36
2018-07-17T14:19:18.542Z,71.88
2018-07-17T14:20:28.661Z,72.08
2018-07-17T14:21:38.786Z,72.17
2018-07-17T14:22:48.884Z,72.27
2018-07-17T14:23:58.445Z,72.42
2018-07-17T14:25:08.588Z,72.04
2018-07-17T14:26:18.693Z,72.14
2018-07-17T14:27:28.784Z,72.33
2018-07-17T14:28:38.856Z,72.04
2018-07-17T14:29:48.944Z,72.14
2018-07-17T14:30:59.060Z,71.94
2018-07-17T14:32:09.199Z,71.75
2018-07-17T14:33:19.261Z,71.94
2018-07-17T14:34:29.104Z,71.84
2018-07-17T14:35:39.189Z,71.94
2018-07-17T14:36:49.459Z,71.94
2018-07-17T14:37:59.578Z,71.84
2018-07-17T14:39:09.406Z,71.66
2018-07-17T14:40:19.473Z,72.14
2018-07-17T14:41:29.534Z,72.24
2018-07-17T14:42:40.007Z,71.94
2018-07-17T14:43:49.886Z,71.94
2018-07-17T14:44:59.989Z,71.84
2018-07-17T14:46:10.066Z,72.04
2018-07-17T14:47:19.883Z,71.75
2018-07-17T14:48:29.980Z,71.69
2018-07-17T14:49:40.070Z,71.5
2018-07-17T14:50:50.266Z,71.11
2018-07-17T14:52:00.377Z,71.5
2018-07-17T14:53:10.451Z,71.34
2018-07-17T14:54:20.522Z,71.53
2018-07-17T14:55:30.328Z,70.76
2018-07-17T14:56:40.146Z,70.98
2018-07-17T14:57:50.240Z,70.5
2018-07-17T14:59:00.055Z,70.7
2018-07-17T15:00:10.211Z,70.63
2018-07-17T15:01:20.779Z,70.44
2018-07-17T15:02:30.608Z,70.63
2018-07-17T15:03:40.702Z,69.89
2018-07-17T15:04:50.779Z,70.09
2018-07-17T15:06:00.875Z,70.18
2018-07-17T15:07:10.960Z,70.21
2018-07-17T15:08:20.512Z,69.64
2018-07-17T15:09:30.666Z,69.48
2018-07-17T15:10:41.224Z,69.38
2018-07-17T15:11:51.134Z,69.6
2018-07-17T15:13:01.318Z,69.51
2018-07-17T15:14:11.383Z,69.6
2018-07-17T15:15:21.461Z,69.7
2018-07-17T15:16:31.727Z,69.54
2018-07-17T15:17:41.862Z,69.64
2018-07-17T15:18:52.028Z,69.74
2018-07-17T15:20:02.112Z,69.67
2018-07-17T15:21:11.932Z,69.48
2018-07-17T15:22:22.155Z,69.38
2018-07-17T15:23:32.557Z,69.87
2018-07-17T15:24:42.631Z,70.06
2018-07-17T15:25:52.720Z,70.26
2018-07-17T15:27:02.531Z,70.26
2018-07-17T15:28:12.720Z,70.16
2018-07-17T15:29:23.053Z,69.87
2018-07-17T15:30:32.877Z,69.96
2018-07-17T15:31:42.680Z,70.94
2018-07-17T15:32:52.511Z,70.45
2018-07-17T15:34:02.339Z,70.45
2018-07-17T15:35:12.232Z,70.94